createdAt,value
2019-05-07T00:01:57.918Z,14.40
2019-05-07T00:04:33.195Z,16.40
2019-05-07T00:07:07.628Z,13.53
2019-05-07T00:09:43.051Z,17.63
2019-05-07T00:12:16.545Z,15.15
2019-05-07T00:15:00.644Z,16.53
2019-05-07T00:17:25.494Z,12.70
2019-05-07T00:19:59.179Z,10.57
2019-05-07T00:22:32.887Z,12.93
2019-05-07T00:25:08.912Z,12.23
2019-05-07T00:27:42.823Z,12.40
2019-05-07T00:30:16.390Z,10.70
2019-05-07T00:32:50.095Z,11.20
2019-05-07T00:35:26.324Z,11.05
2019-05-07T00:38:05.366Z,11.23
2019-05-07T00:40:42.462Z,12.10
2019-05-07T00:43:17.369Z,9.83
2019-05-07T00:45:56.946Z,9.93
2019-05-07T00:48:32.824Z,9.20
2019-05-07T00:51:26.064Z,11.23
2019-05-07T00:54:02.694Z,11.30
2019-05-07T00:56:35.648Z,11.90
2019-05-07T00:59:10.333Z,10.07
2019-05-07T01:01:43.897Z,10.17
2019-05-07T01:04:17.498Z,11.10
2019-05-07T01:06:53.036Z,10.33
2019-05-07T01:09:26.280Z,10.10
2019-05-07T01:11:59.852Z,10.67
2019-05-07T01:14:33.661Z,11.70
2019-05-07T01:17:07.277Z,11.00
2019-05-07T01:19:42.302Z,15.40
2019-05-07T01:22:16.010Z,14.83
2019-05-07T01:24:53.734Z,11.63
2019-05-07T01:27:27.285Z,16.07
2019-05-07T01:30:02.518Z,15.40
2019-05-07T01:32:47.337Z,15.37
2019-05-07T01:35:25.246Z,14.37
2019-05-07T01:37:58.795Z,10.77
2019-05-07T01:40:33.618Z,10.10
2019-05-07T01:43:07.239Z,10.40
2019-05-07T01:45:49.237Z,9.93
2019-05-07T01:48:22.854Z,10.17
2019-05-07T01:50:55.657Z,9.20
2019-05-07T01:53:29.339Z,10.03
2019-05-07T01:56:03.443Z,10.03
2019-05-07T01:58:37.034Z,10.40
2019-05-07T02:01:12.925Z,10.23
2019-05-07T02:03:49.928Z,9.57
2019-05-07T02:06:32.757Z,9.33
2019-05-07T02:09:13.564Z,9.77
2019-05-07T02:11:48.733Z,10.80
2019-05-07T02:14:22.280Z,10.43
2019-05-07T02:16:55.867Z,10.17
2019-05-07T02:19:29.529Z,10.40
2019-05-07T02:22:03.146Z,11.80
2019-05-07T02:24:36.788Z,10.27
2019-05-07T02:27:12.472Z,9.83
2019-05-07T02:29:47.324Z,10.70
2019-05-07T02:32:23.691Z,10.70
2019-05-07T02:34:57.131Z,10.23
2019-05-07T02:37:42.247Z,10.03
2019-05-07T02:40:14.125Z,10.93
2019-05-07T02:42:48.026Z,12.37
2019-05-07T02:45:24.219Z,11.37
2019-05-07T02:47:57.843Z,13.43
2019-05-07T02:50:43.731Z,13.23
2019-05-07T02:53:27.497Z,11.60
2019-05-07T02:56:03.626Z,12.37
2019-05-07T02:58:37.442Z,11.90
2019-05-07T03:01:13.770Z,10.87
2019-05-07T03:03:46.184Z,11.47
2019-05-07T03:06:23.037Z,9.97
2019-05-07T03:08:55.307Z,10.40
2019-05-07T03:11:28.889Z,10.97
2019-05-07T03:14:03.159Z,10.60
2019-05-07T03:16:43.521Z,10.70
2019-05-07T03:19:13.448Z,10.60
2019-05-07T03:21:53.731Z,11.83
2019-05-07T03:24:26.966Z,9.60
2019-05-07T03:27:03.166Z,9.83
2019-05-07T03:29:39.595Z,10.00
2019-05-07T03:32:36.420Z,10.30
2019-05-07T03:35:08.967Z,10.80
2019-05-07T03:37:44.100Z,9.13
2019-05-07T03:40:17.887Z,9.63
2019-05-07T03:42:53.433Z,9.60
2019-05-07T03:45:43.265Z,9.80
2019-05-07T03:48:17.993Z,9.80
2019-05-07T03:50:52.799Z,9.63
2019-05-07T03:53:27.812Z,9.53
2019-05-07T03:56:04.207Z,10.17
2019-05-07T03:58:36.822Z,10.73
2019-05-07T04:01:13.127Z,9.27
2019-05-07T04:03:45.682Z,9.10
2019-05-07T04:06:19.385Z,9.53
2019-05-07T04:08:53.352Z,9.57
2019-05-07T04:11:26.950Z,9.93
2019-05-07T04:14:02.856Z,9.40
2019-05-07T04:16:36.838Z,9.53
2019-05-07T04:19:13.280Z,9.17
2019-05-07T04:21:46.220Z,9.77
2019-05-07T04:24:23.523Z,8.90
2019-05-07T04:27:08.815Z,9.57
2019-05-07T04:29:43.037Z,9.47
2019-05-07T04:32:18.480Z,8.20
2019-05-07T04:34:53.190Z,10.10
2019-05-07T04:37:26.940Z,9.90
2019-05-07T04:40:03.157Z,9.53
2019-05-07T04:42:35.944Z,10.10
2019-05-07T04:45:13.376Z,10.20
2019-05-07T04:47:47.656Z,11.17
2019-05-07T04:50:37.955Z,10.87
2019-05-07T04:52:57.552Z,9.93
2019-05-07T04:55:33.433Z,10.47
2019-05-07T04:58:09.013Z,9.53
2019-05-07T05:00:43.119Z,10.33
2019-05-07T05:03:18.643Z,9.50
2019-05-07T05:05:53.315Z,9.50
2019-05-07T05:08:27.178Z,8.87
2019-05-07T05:11:03.287Z,9.50
2019-05-07T05:13:36.076Z,9.43
2019-05-07T05:16:26.523Z,10.07
2019-05-07T05:19:02.384Z,10.20
2019-05-07T05:21:49.255Z,9.95
2019-05-07T05:24:24.396Z,8.73
2019-05-07T05:26:58.095Z,10.10
2019-05-07T05:29:33.167Z,9.80
2019-05-07T05:32:06.866Z,10.32
2019-05-07T05:34:42.526Z,8.55
2019-05-07T05:37:15.862Z,8.05
2019-05-07T05:40:04.853Z,9.43
2019-05-07T05:42:26.202Z,6.67
2019-05-07T05:45:01.993Z,7.45
2019-05-07T05:47:35.159Z,7.40
2019-05-07T05:50:14.454Z,7.08
2019-05-07T05:52:51.952Z,7.62
2019-05-07T05:55:25.129Z,8.18
2019-05-07T05:58:12.383Z,7.60
2019-05-07T06:00:52.970Z,7.42
2019-05-07T06:04:03.207Z,7.50
2019-05-07T06:06:42.341Z,6.92
2019-05-07T06:09:34.059Z,7.62
2019-05-07T06:12:12.617Z,7.95
2019-05-07T06:14:48.133Z,6.35
2019-05-07T06:17:32.208Z,8.00
2019-05-07T06:20:22.564Z,7.20
2019-05-07T06:23:16.038Z,7.20
2019-05-07T06:28:46.966Z,6.35
2019-05-07T06:31:22.128Z,6.78
2019-05-07T06:33:55.848Z,7.50
2019-05-07T06:36:32.828Z,7.05
2019-05-07T06:39:13.147Z,6.70
2019-05-07T06:44:39.403Z,6.22
2019-05-07T06:47:13.238Z,5.37
2019-05-07T06:49:46.818Z,6.08
2019-05-07T06:52:23.013Z,6.60
2019-05-07T06:55:14.887Z,5.70
2019-05-07T06:57:48.718Z,5.50
2019-05-07T07:00:23.420Z,6.65
2019-05-07T07:03:12.720Z,5.37
2019-05-07T07:05:46.127Z,5.70
2019-05-07T07:08:23.011Z,5.37
2019-05-07T07:11:15.428Z,5.37
2019-05-07T07:16:58.828Z,5.05
2019-05-07T07:19:35.826Z,4.90
2019-05-07T07:22:08.249Z,3.30
2019-05-07T07:42:37.607Z,4.85
2019-05-07T07:45:16.351Z,5.87
2019-05-07T07:47:50.047Z,5.55
2019-05-07T07:50:24.839Z,4.47
2019-05-07T07:52:58.533Z,4.90
2019-05-07T07:55:36.518Z,5.37
2019-05-07T07:58:14.699Z,5.55
2019-05-07T08:00:52.920Z,5.53
2019-05-07T08:03:26.487Z,5.78
2019-05-07T08:06:02.157Z,5.33
2019-05-07T08:11:24.100Z,5.17
2019-05-07T08:13:57.697Z,4.75
2019-05-07T08:16:32.761Z,4.67
2019-05-07T08:19:18.445Z,5.40
2019-05-07T08:21:42.106Z,5.40
2019-05-07T08:24:18.519Z,5.22
2019-05-07T08:26:56.090Z,4.50
2019-05-07T08:29:29.768Z,4.78
2019-05-07T08:35:04.493Z,5.25
2019-05-07T08:37:38.180Z,5.10
2019-05-07T08:40:13.027Z,4.55
2019-05-07T08:42:47.083Z,3.90
2019-05-07T08:45:29.697Z,4.37
2019-05-07T08:48:08.316Z,5.10
2019-05-07T08:50:42.224Z,3.77
2019-05-07T08:53:15.927Z,4.75
2019-05-07T08:55:49.629Z,3.95
2019-05-07T08:58:23.346Z,4.22
2019-05-07T09:00:58.246Z,5.45
2019-05-07T09:03:44.376Z,5.35
2019-05-07T09:06:36.157Z,4.00
2019-05-07T09:09:14.209Z,4.47
2019-05-07T09:11:47.800Z,5.37
2019-05-07T09:14:23.561Z,4.42
2019-05-07T09:16:57.057Z,5.47
2019-05-07T09:19:32.174Z,4.62
2019-05-07T09:22:06.336Z,4.72
2019-05-07T09:24:41.826Z,4.80
2019-05-07T09:27:17.106Z,7.45
2019-05-07T09:33:12.478Z,3.83
2019-05-07T09:35:47.868Z,3.58
2019-05-07T09:51:34.310Z,3.33
2019-05-07T09:54:08.326Z,3.83
2019-05-07T09:56:42.289Z,4.85
2019-05-07T09:59:15.808Z,4.65
2019-05-07T10:01:49.373Z,4.75
2019-05-07T10:04:23.079Z,4.83
2019-05-07T10:14:14.996Z,3.58
2019-05-07T10:16:52.307Z,3.98
2019-05-07T10:19:25.657Z,3.20
2019-05-07T10:21:59.317Z,3.02
2019-05-07T10:35:49.757Z,5.00
2019-05-07T10:38:24.416Z,1.90
2019-05-07T10:40:58.451Z,2.12
2019-05-07T11:55:25.660Z,3.95
2019-05-07T11:57:59.401Z,4.05
2019-05-07T12:00:43.826Z,3.70
2019-05-07T12:03:17.441Z,3.75
2019-05-07T12:05:52.673Z,4.17
2019-05-07T12:08:37.611Z,4.58
2019-05-07T12:11:02.363Z,5.20
2019-05-07T12:13:36.340Z,3.75
2019-05-07T12:16:12.082Z,4.12
2019-05-07T12:18:45.254Z,3.55
2019-05-07T14:04:04.055Z,4.15
2019-05-07T14:06:43.055Z,4.47
2019-05-07T14:09:23.944Z,4.92
2019-05-07T14:11:57.194Z,4.87
2019-05-07T14:14:34.183Z,3.17
2019-05-07T14:17:06.285Z,5.50
2019-05-07T14:19:42.141Z,5.62
2019-05-07T14:22:18.959Z,4.95
2019-05-07T14:24:53.002Z,4.80
2019-05-07T14:27:26.780Z,4.55
2019-05-07T14:30:06.054Z,4.85
2019-05-07T14:32:52.453Z,5.50
2019-05-07T14:35:32.271Z,4.42
2019-05-07T14:38:07.281Z,4.72
2019-05-07T14:40:42.708Z,4.33
2019-05-07T14:46:47.195Z,4.20
2019-05-07T14:49:15.192Z,4.53
2019-05-07T14:51:48.718Z,7.03
2019-05-07T14:54:22.758Z,7.10
2019-05-07T14:56:56.579Z,5.97
2019-05-07T14:59:32.250Z,7.22
2019-05-07T15:02:05.868Z,8.73
2019-05-07T15:04:41.826Z,6.35
2019-05-07T15:07:15.065Z,5.12
2019-05-07T15:09:51.968Z,5.30
2019-05-07T15:12:25.887Z,4.78
2019-05-07T15:14:59.525Z,4.47
2019-05-07T15:17:52.448Z,6.35
2019-05-07T15:20:26.523Z,5.40
2019-05-07T15:23:02.736Z,5.95
2019-05-07T15:25:37.844Z,5.05
2019-05-07T15:28:12.264Z,4.83
2019-05-07T15:30:47.560Z,5.05
2019-05-07T15:33:21.802Z,5.35
2019-05-07T15:35:55.696Z,6.87
2019-05-07T15:38:29.533Z,5.83
2019-05-07T15:41:04.037Z,5.30
2019-05-07T15:43:37.597Z,5.08
2019-05-07T15:46:12.131Z,5.85
2019-05-07T15:48:46.062Z,6.20
2019-05-07T15:51:19.820Z,5.60
2019-05-07T15:53:57.934Z,6.30
2019-05-07T15:56:32.447Z,6.30
2019-05-07T15:59:07.627Z,6.22
2019-05-07T16:01:41.998Z,6.78
2019-05-07T16:04:22.408Z,5.80
2019-05-07T16:06:52.806Z,6.50
2019-05-07T16:09:27.999Z,5.50
2019-05-07T16:12:02.246Z,8.98
2019-05-07T16:14:35.836Z,7.40
2019-05-07T16:17:12.880Z,7.47
2019-05-07T16:19:47.084Z,6.47
2019-05-07T16:22:22.376Z,7.28
2019-05-07T16:24:56.008Z,7.70
2019-05-07T16:27:31.630Z,9.08
2019-05-07T16:30:07.669Z,9.13
2019-05-07T16:32:42.353Z,12.10
2019-05-07T16:35:16.469Z,8.88
2019-05-07T16:37:52.051Z,9.13
2019-05-07T16:40:26.420Z,10.32
2019-05-07T16:43:00.063Z,8.90
2019-05-07T16:45:34.281Z,9.20
2019-05-07T16:48:24.255Z,8.58
2019-05-07T16:50:57.972Z,6.87
2019-05-07T16:53:33.045Z,8.75
2019-05-07T16:56:06.998Z,7.08
2019-05-07T16:58:42.749Z,9.98
2019-05-07T17:01:17.678Z,8.25
2019-05-07T17:03:53.015Z,8.65
2019-05-07T17:06:26.555Z,7.75
2019-05-07T17:09:04.640Z,8.40
2019-05-07T17:11:39.559Z,8.65
2019-05-07T17:14:13.305Z,9.38
2019-05-07T17:16:47.057Z,8.45
2019-05-07T17:19:22.474Z,9.75
2019-05-07T17:21:56.041Z,9.63
2019-05-07T17:24:29.757Z,11.33
2019-05-07T17:27:03.517Z,9.00
2019-05-07T17:29:37.248Z,8.28
2019-05-07T17:32:12.300Z,7.83
2019-05-07T17:34:45.946Z,8.10
2019-05-07T17:37:19.637Z,9.05
2019-05-07T17:39:53.337Z,8.00
2019-05-07T17:42:27.122Z,9.20
2019-05-07T17:45:02.862Z,8.28
2019-05-07T17:47:36.198Z,7.78
2019-05-07T17:50:12.664Z,8.70
2019-05-07T17:52:46.424Z,9.48
2019-05-07T17:55:22.193Z,11.05
2019-05-07T17:57:55.948Z,10.13
2019-05-07T18:00:29.878Z,9.70
2019-05-07T18:03:09.282Z,9.25
2019-05-07T18:05:43.045Z,9.30
2019-05-07T18:08:17.709Z,10.32
2019-05-07T18:10:51.647Z,12.88
2019-05-07T18:13:25.272Z,15.32
2019-05-07T18:16:02.759Z,14.40
2019-05-07T18:18:35.780Z,12.70
2019-05-07T18:21:12.481Z,12.73
2019-05-07T18:23:48.860Z,14.93
2019-05-07T18:26:29.897Z,14.73
2019-05-07T18:28:57.699Z,16.45
2019-05-07T18:31:50.175Z,14.85
2019-05-07T18:34:23.754Z,14.10
2019-05-07T18:36:57.397Z,13.35
2019-05-07T18:39:32.411Z,17.70
2019-05-07T18:42:06.207Z,17.27
2019-05-07T18:44:41.598Z,35.25
2019-05-07T18:47:16.230Z,23.65
2019-05-07T18:49:51.893Z,21.05
2019-05-07T18:52:25.755Z,19.75
2019-05-07T18:54:59.436Z,17.50
2019-05-07T18:57:33.078Z,14.50
2019-05-07T19:00:17.737Z,14.45
2019-05-07T19:02:52.289Z,12.37
2019-05-07T19:05:26.042Z,13.55
2019-05-07T19:08:05.421Z,14.83
2019-05-07T19:10:36.170Z,19.82
2019-05-07T19:13:09.907Z,17.23
2019-05-07T19:15:44.104Z,20.90
2019-05-07T19:18:18.706Z,19.57
2019-05-07T19:20:52.924Z,22.37
2019-05-07T19:23:27.081Z,20.30
2019-05-07T19:26:02.425Z,28.92
2019-05-07T19:28:36.142Z,22.15
2019-05-07T19:31:09.649Z,22.58
2019-05-07T19:33:43.378Z,23.30
2019-05-07T19:36:16.952Z,23.00
2019-05-07T19:39:12.637Z,41.07
2019-05-07T19:41:46.328Z,28.07
2019-05-07T19:44:20.598Z,29.20
2019-05-07T19:46:54.656Z,21.90
2019-05-07T19:49:28.223Z,28.63
2019-05-07T19:52:01.862Z,51.73
2019-05-07T19:54:37.541Z,22.77
2019-05-07T19:57:13.641Z,20.10
2019-05-07T19:59:47.645Z,26.23
2019-05-07T20:02:23.742Z,26.67
2019-05-07T20:04:57.459Z,29.27
2019-05-07T20:07:31.876Z,24.43
2019-05-07T20:10:07.966Z,31.23
2019-05-07T20:12:42.890Z,22.10
2019-05-07T20:15:16.817Z,22.13
2019-05-07T20:17:52.517Z,21.63
2019-05-07T20:20:33.339Z,22.83
2019-05-07T20:23:08.212Z,23.33
2019-05-07T20:25:42.190Z,23.03
2019-05-07T20:28:17.231Z,22.73
2019-05-07T20:30:52.963Z,23.77
2019-05-07T20:33:26.497Z,24.00
2019-05-07T20:36:03.496Z,24.63
2019-05-07T20:38:37.154Z,24.03
2019-05-07T20:41:12.932Z,26.13
2019-05-07T20:43:47.375Z,25.07
2019-05-07T20:46:21.039Z,26.63
2019-05-07T20:48:55.092Z,24.50
2019-05-07T20:51:29.046Z,25.90
2019-05-07T20:54:10.099Z,31.47
2019-05-07T20:56:46.687Z,27.83
2019-05-07T20:59:21.955Z,26.27
2019-05-07T21:01:55.919Z,26.23
2019-05-07T21:04:29.395Z,19.97
2019-05-07T21:07:03.434Z,23.00
2019-05-07T21:09:37.053Z,22.23
2019-05-07T21:12:12.859Z,19.73
2019-05-07T21:14:46.390Z,19.33
2019-05-07T21:17:22.562Z,19.00
2019-05-07T21:19:55.517Z,19.53
2019-05-07T21:22:31.962Z,19.87
2019-05-07T21:25:06.172Z,21.27
2019-05-07T21:27:40.125Z,20.43
2019-05-07T21:30:17.256Z,18.87
2019-05-07T21:33:01.138Z,19.10
2019-05-07T21:35:34.847Z,19.90
2019-05-07T21:38:08.621Z,21.43
2019-05-07T21:40:42.859Z,21.20
2019-05-07T21:43:16.767Z,19.23
2019-05-07T21:45:52.796Z,19.33
2019-05-07T21:48:25.616Z,18.23
2019-05-07T21:50:59.261Z,19.03
2019-05-07T21:53:32.638Z,17.17
2019-05-07T21:56:06.199Z,17.67
2019-05-07T21:58:41.759Z,16.57
2019-05-07T22:01:26.006Z,15.83
2019-05-07T22:04:01.909Z,16.40
2019-05-07T22:06:35.464Z,16.17
2019-05-07T22:09:12.674Z,15.60
2019-05-07T22:11:45.607Z,16.00
2019-05-07T22:14:19.296Z,16.13
2019-05-07T22:16:54.629Z,14.63
2019-05-07T22:19:28.936Z,13.70
2019-05-07T22:22:02.974Z,14.37
2019-05-07T22:24:36.788Z,13.20
2019-05-07T22:27:12.934Z,15.40
2019-05-07T22:29:46.159Z,14.07
2019-05-07T22:32:24.620Z,13.97
2019-05-07T22:35:15.121Z,13.27
2019-05-07T22:37:51.963Z,12.30
2019-05-07T22:40:32.032Z,13.40
2019-05-07T22:43:06.756Z,13.00
2019-05-07T22:45:42.755Z,12.60
2019-05-07T22:48:16.654Z,11.97
2019-05-07T22:50:51.908Z,12.57
2019-05-07T22:53:25.621Z,11.17
2019-05-07T22:55:59.182Z,11.33
2019-05-07T22:58:34.776Z,11.20
2019-05-07T23:01:09.887Z,11.10
2019-05-07T23:03:43.486Z,11.10
2019-05-07T23:06:17.036Z,11.20
2019-05-07T23:08:52.323Z,11.13
2019-05-07T23:11:26.868Z,9.87
2019-05-07T23:14:02.492Z,11.03
2019-05-07T23:16:35.674Z,11.53
2019-05-07T23:19:09.675Z,13.00
2019-05-07T23:21:44.259Z,12.73
2019-05-07T23:24:18.722Z,13.93
2019-05-07T23:26:53.657Z,15.37
2019-05-07T23:29:27.557Z,14.93
2019-05-07T23:32:01.979Z,14.93
2019-05-07T23:34:36.135Z,14.87
2019-05-07T23:37:11.737Z,15.03
2019-05-07T23:39:46.980Z,15.73
2019-05-07T23:42:22.087Z,15.10
2019-05-07T23:44:56.074Z,18.13
2019-05-07T23:47:31.735Z,15.97
2019-05-07T23:50:07.312Z,17.93
2019-05-07T23:52:43.970Z,16.90
2019-05-07T23:55:16.988Z,17.57
2019-05-07T23:57:52.531Z,16.13
